Time;durP1;ratioP1;P1;durP2;ratioP2;P2;SDS_P1;SDS_P2;PMS_P1;PMS_P2;Temp;Humidity;BMP_temperature;BMP_pressure;BME280_temperature;BME280_humidity;BME280_pressure;Samples;Min_cycle;Max_cycle;Signal;HPM_P1;HPM_P2
2021/04/13 00:01:16;;;;;;;33.15;20.95;;;;;;;3.12;81.19;101602.94;1787779;80;21190;-76
2021/04/13 00:03:57;;;;;;;28.83;16.77;;;;;;;3.10;81.20;101610.07;1785675;80;21176;-76
2021/04/13 00:06:38;;;;;;;24.77;15.65;;;;;;;3.09;81.21;101607.08;1787826;80;21701;-76
2021/04/13 00:09:23;;;;;;;21.30;14.93;;;;;;;3.15;81.21;101608.02;1815228;77;22703;-77
2021/04/13 00:11:52;;;;;;;26.27;17.95;;;;;;;3.11;81.20;101610.45;1787297;80;21215;-76
2021/04/13 00:14:25;;;;;;;27.82;18.52;;;;;;;3.13;81.22;101607.25;1787600;80;21230;-76
2021/04/13 00:16:53;;;;;;;30.43;17.50;;;;;;;3.10;81.19;101599.53;1732324;81;21190;-76
2021/04/13 00:19:29;;;;;;;24.98;15.53;;;;;;;3.12;81.21;101600.30;1727277;81;21146;-76
2021/04/13 00:21:56;;;;;;;32.95;18.07;;;;;;;3.14;81.24;101601.51;1756606;81;21143;-76
2021/04/13 00:24:23;;;;;;;35.25;22.70;;;;;;;3.13;81.25;101605.93;1756880;81;21199;-76
2021/04/13 00:26:52;;;;;;;55.12;36.95;;;;;;;3.13;81.27;101603.30;1723591;81;21178;-76
2021/04/13 00:29:23;;;;;;;52.13;37.13;;;;;;;3.12;81.28;101605.58;1716249;83;21750;-76
2021/04/13 00:31:49;;;;;;;49.38;34.53;;;;;;;3.11;81.26;101601.70;1716040;83;21209;-76
2021/04/13 00:34:33;;;;;;;47.00;30.50;;;;;;;3.11;81.26;101606.51;1716294;82;21214;-76
2021/04/13 00:37:31;;;;;;;30.88;19.37;;;;;;;3.10;81.26;101602.16;1715913;83;21194;-76
2021/04/13 00:40:28;;;;;;;29.92;17.90;;;;;;;3.13;81.26;101601.98;1716252;83;22105;-76
2021/04/13 00:43:00;;;;;;;23.65;16.17;;;;;;;3.14;81.26;101603.68;1687475;83;21217;-76
2021/04/13 00:45:30;;;;;;;31.17;17.05;;;;;;;3.15;81.26;101601.89;1689261;83;21189;-77
2021/04/13 00:47:56;;;;;;;36.30;19.87;;;;;;;3.16;81.23;101604.45;1716445;83;21154;-77
2021/04/13 00:50:33;;;;;;;36.55;20.45;;;;;;;3.17;81.24;101602.17;1716285;83;21206;-76
2021/04/13 00:53:01;;;;;;;42.43;21.62;;;;;;;3.20;81.23;101600.66;1688045;83;22009;-76
2021/04/13 00:55:33;;;;;;;34.55;21.07;;;;;;;3.21;81.23;101601.52;1716189;83;21170;-76
2021/04/13 00:58:20;;;;;;;40.03;25.82;;;;;;;3.24;81.21;101595.59;1814677;77;22704;-77
2021/04/13 01:00:56;;;;;;;44.40;29.50;;;;;;;3.18;81.21;101594.65;1758000;80;21131;-76
2021/04/13 01:03:25;;;;;;;45.00;29.37;;;;;;;3.19;81.19;101593.72;1787762;80;21163;-76
2021/04/13 01:05:55;;;;;;;59.25;39.15;;;;;;;3.16;81.18;101587.32;1787148;80;21056;-76
2021/04/13 01:08:35;;;;;;;66.40;42.17;;;;;;;3.14;81.15;101592.28;1788004;80;21725;-76
2021/04/13 01:11:19;;;;;;;50.55;33.80;;;;;;;3.08;81.13;101590.88;1788121;80;21155;-75
2021/04/13 01:13:59;;;;;;;46.10;27.62;;;;;;;3.08;81.14;101592.67;1786593;80;21128;-76
2021/04/13 01:16:33;;;;;;;;;;;;;;;3.06;81.12;101598.05;1768136;80;21238;-75
2021/04/13 01:19:05;;;;;;;38.83;22.70;;;;;;;3.04;81.11;101594.64;1741557;82;20302;-75
2021/04/13 01:22:07;;;;;;;39.35;21.85;;;;;;;3.01;81.09;101594.36;1741730;82;21165;-76
2021/04/13 01:24:36;;;;;;;38.28;22.85;;;;;;;3.00;81.09;101599.71;1741363;82;21181;-75
2021/04/13 01:27:08;;;;;;;37.48;21.97;;;;;;;2.99;81.07;101597.54;1741651;82;21189;-76
2021/04/13 01:29:35;;;;;;;44.53;25.05;;;;;;;2.97;81.05;101595.48;1716039;82;21437;-76
2021/04/13 01:32:02;;;;;;;45.60;25.12;;;;;;;2.96;81.06;101596.41;1714701;82;21647;-76
2021/04/13 01:34:38;;;;;;;59.80;34.75;;;;;;;2.97;81.05;101595.48;1714905;82;21165;-76
2021/04/13 01:40:04;;;;;;;76.07;46.37;;;;;;;2.97;81.02;101601.22;1716651;82;21606;-76
2021/04/13 01:42:29;;;;;;;39.60;27.02;;;;;;;2.96;81.04;101598.20;1741053;82;21401;-76
2021/04/13 01:45:08;;;;;;;31.05;19.73;;;;;;;2.93;81.02;101599.70;1741777;82;21561;-76
2021/04/13 01:47:35;;;;;;;27.98;18.67;;;;;;;2.90;81.02;101598.57;1741436;81;21639;-76
2021/04/13 01:50:30;;;;;;;27.90;17.52;;;;;;;2.87;81.00;101599.61;1754940;80;21159;-76
2021/04/13 01:53:12;;;;;;;27.77;16.65;;;;;;;2.86;81.00;101593.10;1732684;81;21524;-76
2021/04/13 01:55:49;;;;;;;25.05;14.93;;;;;;;2.86;81.00;101597.05;1756752;81;22529;-75
2021/04/13 01:58:46;;;;;;;63.78;30.23;;;;;;;2.84;81.00;101601.58;1751297;81;21153;-76
2021/04/13 02:01:38;;;;;;;50.55;22.50;;;;;;;2.82;80.99;101596.85;1732014;82;21165;-76
2021/04/13 02:04:23;;;;;;;36.98;18.20;;;;;;;2.80;80.99;101600.06;1732071;82;21172;-76
2021/04/13 02:07:33;;;;;;;26.52;13.80;;;;;;;2.76;80.98;101601.17;1731812;81;21237;-75
2021/04/13 02:10:13;;;;;;;21.25;14.20;;;;;;;2.74;80.99;101604.38;1730652;82;21390;-75
2021/04/13 02:12:39;;;;;;;28.35;16.02;;;;;;;2.69;80.97;101600.69;1704886;82;21765;-76
2021/04/13 02:15:23;;;;;;;29.87;18.48;;;;;;;2.68;80.98;101598.13;1731572;82;21144;-75
2021/04/13 02:17:59;;;;;;;30.23;15.60;;;;;;;2.67;80.98;101604.36;1752740;81;21584;-76
2021/04/13 02:20:30;;;;;;;33.02;19.25;;;;;;;2.64;80.97;101604.55;1761667;81;21560;-75
2021/04/13 02:22:57;;;;;;;44.95;27.30;;;;;;;2.62;80.96;101608.57;1707540;82;21240;-76
2021/04/13 02:25:29;;;;;;;24.20;15.72;;;;;;;2.61;80.95;101604.70;1731349;81;21157;-76
2021/04/13 02:27:57;;;;;;;20.45;12.25;;;;;;;2.60;80.94;101606.52;1730932;81;21141;-76
2021/04/13 02:30:42;;;;;;;20.45;12.07;;;;;;;2.57;80.96;101601.89;1731358;82;21188;-76
2021/04/13 02:33:38;;;;;;;25.05;14.13;;;;;;;2.53;80.97;101609.94;1731539;82;21161;-76
2021/04/13 02:36:16;;;;;;;27.27;15.58;;;;;;;2.51;80.96;101608.34;1731571;82;21257;-75
2021/04/13 02:38:47;;;;;;;40.52;22.60;;;;;;;2.48;80.95;101602.80;1731343;82;21157;-75
2021/04/13 02:41:28;;;;;;;27.58;15.28;;;;;;;2.47;80.96;101607.67;1731143;82;21261;-75
2021/04/13 02:43:55;;;;;;;31.23;18.52;;;;;;;2.47;80.97;101606.36;1731424;82;21196;-75
2021/04/13 02:46:30;;;;;;;35.90;22.60;;;;;;;2.44;80.99;101603.05;1731491;81;21555;-75
2021/04/13 02:49:03;;;;;;;51.90;37.53;;;;;;;2.44;80.99;101603.91;1731577;82;21198;-75
2021/04/13 02:51:31;;;;;;;54.27;38.45;;;;;;;2.41;80.98;101610.67;1731438;82;21208;-75
2021/04/13 02:53:59;;;;;;;48.87;35.17;;;;;;;2.39;80.98;101609.89;1681044;81;21213;-75
2021/04/13 02:56:30;;;;;;;33.53;21.00;;;;;;;2.38;80.99;101617.42;1760980;80;21151;-75
2021/04/13 02:59:16;;;;;;;37.55;19.67;;;;;;;2.36;81.01;101611.84;1758900;81;21163;-75
2021/04/13 03:02:12;;;;;;;37.58;20.75;;;;;;;2.34;81.01;101611.10;1755333;81;21202;-75
2021/04/13 03:04:48;;;;;;;30.48;17.65;;;;;;;2.31;81.03;101614.77;1758770;81;21134;-75
2021/04/13 03:07:20;;;;;;;26.02;15.55;;;;;;;2.29;81.04;101612.67;1732467;81;21446;-75
2021/04/13 03:09:46;;;;;;;33.65;15.75;;;;;;;2.26;81.03;101614.17;1758926;80;21151;-75
2021/04/13 03:12:13;;;;;;;29.18;15.93;;;;;;;2.24;81.04;101608.16;1758634;81;21568;-76
2021/04/13 03:14:42;;;;;;;33.88;16.62;;;;;;;2.22;81.02;101605.20;1758910;81;21241;-76
2021/04/13 03:17:15;;;;;;;37.63;17.52;;;;;;;2.21;81.04;101603.07;1758487;80;21575;-76
2021/04/13 03:19:41;;;;;;;40.05;20.77;;;;;;;2.21;81.04;101605.70;1758913;80;21159;-76
2021/04/13 03:22:08;;;;;;;44.30;23.98;;;;;;;2.20;81.05;101610.58;1758915;81;21131;-76
2021/04/13 03:24:40;;;;;;;50.67;32.65;;;;;;;2.21;81.06;101612.74;1731110;81;21396;-75
2021/04/13 03:27:11;;;;;;;44.45;22.50;;;;;;;2.20;81.09;101603.14;1758836;81;22107;-75
2021/04/13 03:30:10;;;;;;;54.33;32.75;;;;;;;2.22;81.10;101613.95;1710516;81;21190;-75
2021/04/13 03:33:02;;;;;;;36.13;17.45;;;;;;;2.23;81.09;101611.71;1708593;84;21204;-76
2021/04/13 03:35:28;;;;;;;27.58;14.03;;;;;;;2.27;81.09;101609.75;1708252;83;21730;-76
2021/04/13 03:37:56;;;;;;;29.50;14.68;;;;;;;2.26;81.07;101606.27;1708230;82;21133;-76
2021/04/13 03:40:25;;;;;;;32.60;14.03;;;;;;;2.28;81.10;101612.31;1708558;84;21196;-76
2021/04/13 03:42:59;;;;;;;35.40;14.40;;;;;;;2.28;81.09;101607.05;1707910;84;21192;-76
2021/04/13 03:45:28;;;;;;;38.25;17.42;;;;;;;2.28;81.08;101613.63;1708264;82;21187;-76
2021/04/13 03:47:54;;;;;;;42.53;18.67;;;;;;;2.28;81.07;101618.04;1708198;82;21169;-76
2021/04/13 03:50:27;;;;;;;43.30;18.55;;;;;;;2.28;81.04;101614.09;1708060;82;21618;-76
2021/04/13 03:53:04;;;;;;;39.10;16.57;;;;;;;2.26;81.07;101613.31;1708388;83;21187;-76
2021/04/13 03:55:31;;;;;;;30.25;14.58;;;;;;;2.24;81.05;101620.00;1708375;81;21190;-75
2021/04/13 03:57:57;;;;;;;31.45;16.07;;;;;;;2.24;81.05;101627.89;1711676;82;21774;-75
2021/04/13 04:00:26;;;;;;;34.40;16.87;;;;;;;2.23;81.02;101635.39;1715356;82;21572;-76
2021/04/13 04:02:53;;;;;;;44.30;24.80;;;;;;;2.22;81.03;101629.74;1755082;81;21151;-75
2021/04/13 04:08:06;;;;;;;59.67;38.87;;;;;;;2.22;81.04;101632.84;1810288;77;22375;-76
2021/04/13 04:10:46;;;;;;;31.42;17.57;;;;;;;2.12;81.03;101637.77;1763935;79;21613;-76
2021/04/13 04:13:19;;;;;;;;;;;;;;;2.09;81.01;101638.41;1799374;79;21246;-76
2021/04/13 04:15:48;;;;;;;30.05;14.95;;;;;;;2.05;81.02;101639.52;1795729;79;20563;-76
2021/04/13 04:18:49;;;;;;;50.08;17.87;;;;;;;2.00;81.00;101635.84;1794825;80;21620;-75
2021/04/13 04:21:39;;;;;;;43.23;18.65;;;;;;;1.96;81.00;101640.89;1794246;80;21584;-75
2021/04/13 04:24:20;;;;;;;35.60;18.00;;;;;;;1.90;81.01;101646.50;1792924;80;21480;-75
2021/04/13 04:26:51;;;;;;;34.27;15.65;;;;;;;1.86;80.98;101648.91;1793868;79;21620;-75
2021/04/13 04:29:37;;;;;;;32.90;14.05;;;;;;;1.83;80.97;101649.08;1794774;80;21175;-75
2021/04/13 04:32:32;;;;;;;38.48;15.63;;;;;;;1.80;80.97;101643.95;1794696;80;21104;-76
2021/04/13 04:35:04;;;;;;;40.23;18.12;;;;;;;1.77;80.98;101651.55;1793580;80;21131;-76
2021/04/13 04:37:34;;;;;;;30.95;15.60;;;;;;;1.74;80.97;101645.61;1794442;80;21135;-75
2021/04/13 04:40:29;;;;;;;33.55;15.85;;;;;;;1.71;80.97;101649.73;1764469;80;21207;-76
2021/04/13 04:43:01;;;;;;;58.15;23.15;;;;;;;1.69;80.98;101646.34;1794543;80;21123;-76
2021/04/13 04:45:46;;;;;;;62.58;22.82;;;;;;;1.64;80.99;101650.98;1763795;80;21199;-76
2021/04/13 04:48:26;;;;;;;49.08;20.10;;;;;;;1.62;80.99;101655.49;1794538;80;21127;-75
2021/04/13 04:50:58;;;;;;;;;;;;;;;1.59;80.99;101660.42;1797395;79;21124;-75
2021/04/13 04:53:25;;;;;;;46.02;24.70;;;;;;;1.58;80.99;101668.41;1794649;80;21261;-76
2021/04/13 04:55:52;;;;;;;45.85;23.85;;;;;;;1.59;80.99;101670.09;1794532;80;21718;-75
2021/04/13 04:58:19;;;;;;;33.90;20.85;;;;;;;1.62;80.98;101671.27;1794752;80;21458;-75
2021/04/13 05:00:47;;;;;;;41.92;18.23;;;;;;;1.66;80.99;101672.77;1794574;80;21171;-75
2021/04/13 05:03:15;;;;;;;38.35;16.95;;;;;;;1.73;80.96;101675.45;1794089;80;21155;-75
2021/04/13 05:05:41;;;;;;;39.03;18.37;;;;;;;1.84;80.96;101675.73;1794611;80;21198;-75
2021/04/13 05:08:08;;;;;;;50.52;21.30;;;;;;;2.01;80.98;101679.61;1787843;80;21179;-76
2021/04/13 05:10:34;;;;;;;43.33;21.55;;;;;;;2.59;81.08;101682.95;1760423;81;21649;-76
2021/04/13 05:13:00;;;;;;;55.92;26.25;;;;;;;3.87;81.29;101678.29;1757711;81;21541;-76
2021/04/13 05:15:27;;;;;;;61.02;26.07;;;;;;;5.11;81.17;101678.03;1754364;80;21113;-76
2021/04/13 05:17:53;;;;;;;54.15;27.67;;;;;;;5.89;80.62;101677.48;1733517;81;21164;-76
2021/04/13 05:20:20;;;;;;;32.78;16.30;;;;;;;6.03;79.80;101681.31;1758638;80;21177;-77
2021/04/13 05:22:46;;;;;;;27.17;13.13;;;;;;;6.02;79.52;101680.47;1755910;81;21133;-77
2021/04/13 05:25:12;;;;;;;17.23;8.68;;;;;;;6.03;79.40;101686.61;1760263;81;21320;-77
2021/04/13 05:27:39;;;;;;;13.03;7.75;;;;;;;6.14;79.50;101688.02;1760245;81;21173;-77
2021/04/13 05:30:08;;;;;;;15.43;6.95;;;;;;;5.94;79.45;101685.95;1757243;81;21192;-77
2021/04/13 05:32:34;;;;;;;34.05;10.20;;;;;;;6.02;79.49;101687.55;1756862;81;21175;-77
2021/04/13 05:35:01;;;;;;;18.20;7.28;;;;;;;6.27;79.45;101687.50;1756340;81;21164;-77
2021/04/13 05:37:29;;;;;;;25.00;10.68;;;;;;;6.43;79.31;101685.45;1756471;81;21188;-77
2021/04/13 05:39:56;;;;;;;33.18;10.82;;;;;;;6.18;79.14;101686.84;1723262;83;21409;-77
2021/04/13 05:42:26;;;;;;;22.73;7.97;;;;;;;6.02;79.15;101689.73;1726441;83;21558;-77
2021/04/13 05:44:54;;;;;;;23.87;9.85;;;;;;;5.83;78.99;101687.15;1707291;84;21205;-77
2021/04/13 05:47:22;;;;;;;34.10;11.60;;;;;;;5.56;78.86;101689.08;1726109;81;21144;-77
2021/04/13 05:49:48;;;;;;;32.17;12.05;;;;;;;5.44;78.73;101683.67;1656745;84;21626;-77
2021/04/13 05:52:14;;;;;;;22.65;9.03;;;;;;;5.30;78.50;101687.75;1742125;82;21149;-76
2021/04/13 05:54:41;;;;;;;32.83;16.82;;;;;;;5.27;78.33;101698.54;1742607;82;21373;-76
2021/04/13 05:57:13;;;;;;;34.20;11.53;;;;;;;5.36;78.07;101696.58;1741035;81;21126;-76
2021/04/13 05:59:41;;;;;;;40.63;19.77;;;;;;;5.45;77.88;101701.22;1741303;82;21158;-77
2021/04/13 06:02:11;;;;;;;31.33;13.90;;;;;;;5.54;77.70;101701.08;1742660;81;21231;-76
2021/04/13 06:04:38;;;;;;;31.70;16.12;;;;;;;5.67;77.52;101698.42;1742678;82;21614;-77
2021/04/13 06:07:04;;;;;;;40.58;18.87;;;;;;;5.85;77.30;101690.52;1753022;80;21164;-77
2021/04/13 06:09:30;;;;;;;14.00;7.47;;;;;;;6.02;77.09;101690.20;1761414;80;21183;-77
2021/04/13 06:11:57;;;;;;;33.13;18.82;;;;;;;6.22;76.89;101696.27;1759745;81;21143;-77
2021/04/13 06:14:24;;;;;;;33.42;11.60;;;;;;;6.20;76.63;101700.81;1729182;83;21741;-77
2021/04/13 06:16:51;;;;;;;15.85;7.17;;;;;;;6.40;76.44;101696.23;1742266;81;21141;-78
2021/04/13 06:19:18;;;;;;;9.88;5.95;;;;;;;6.63;76.21;101691.08;1759671;81;21259;-78
2021/04/13 06:21:45;;;;;;;10.13;4.00;;;;;;;6.83;76.04;101690.44;1729408;82;21189;-78
2021/04/13 06:24:13;;;;;;;11.30;4.50;;;;;;;6.57;75.69;101685.76;1759677;81;21166;-78
2021/04/13 06:26:39;;;;;;;10.13;6.20;;;;;;;6.50;75.44;101695.97;1727741;83;21195;-78
2021/04/13 06:29:05;;;;;;;16.95;8.80;;;;;;;6.46;75.20;101692.31;1726264;83;21151;-77
2021/04/13 06:31:32;;;;;;;18.70;8.75;;;;;;;6.35;75.01;101695.74;1726356;83;21168;-78
2021/04/13 06:33:58;;;;;;;22.00;8.85;;;;;;;6.01;74.83;101691.18;1726544;83;21155;-78
2021/04/13 06:36:26;;;;;;;11.53;6.28;;;;;;;5.89;74.68;101698.18;1726530;83;21620;-78
2021/04/13 06:38:52;;;;;;;19.00;7.28;;;;;;;5.99;74.52;101698.37;1726600;83;21141;-78
2021/04/13 06:41:53;;;;;;;23.55;10.75;;;;;;;6.08;74.30;101708.33;1726674;83;21188;-78
2021/04/13 06:44:52;;;;;;;17.00;8.30;;;;;;;5.98;74.10;101705.97;1726558;83;22212;-77
2021/04/13 06:47:36;;;;;;;19.32;9.15;;;;;;;5.82;73.88;101717.21;1756257;81;21164;-78
2021/04/13 06:50:17;;;;;;;19.12;9.85;;;;;;;5.70;73.66;101718.08;1756644;81;21136;-77
2021/04/13 06:53:15;;;;;;;15.03;7.83;;;;;;;5.63;73.57;101720.78;1772768;80;21144;-77
2021/04/13 06:56:07;;;;;;;11.25;6.78;;;;;;;5.69;73.42;101728.29;1753635;80;21145;-77
2021/04/13 06:59:17;;;;;;;14.15;5.47;;;;;;;5.68;73.23;101731.41;1726582;83;21219;-77
2021/04/13 07:01:55;;;;;;;11.43;7.00;;;;;;;5.82;73.06;101733.95;1726328;83;21153;-77
2021/04/13 07:05:01;;;;;;;20.15;9.75;;;;;;;5.93;72.89;101738.52;1698121;83;21177;-78
2021/04/13 07:08:00;;;;;;;16.90;7.90;;;;;;;5.96;72.76;101743.60;1714124;81;21187;-78
2021/04/13 07:10:29;;;;;;;23.90;10.38;;;;;;;5.92;72.59;101743.44;1756424;81;21128;-78
2021/04/13 07:13:06;;;;;;;11.60;5.40;;;;;;;6.01;72.48;101741.48;1769757;81;21277;-78
2021/04/13 07:16:04;;;;;;;22.07;8.88;;;;;;;6.15;72.39;101740.05;1766959;81;21622;-78
2021/04/13 07:18:48;;;;;;;8.75;4.97;;;;;;;6.23;72.18;101744.30;1792040;79;21146;-78
2021/04/13 07:22:23;;;;;;;8.43;5.05;;;;;;;6.39;72.03;101739.61;1852148;77;21963;-79
2021/04/13 07:24:54;;;;;;;11.88;6.87;;;;;;;6.62;71.91;101743.70;1824012;78;21638;-78
2021/04/13 07:27:44;;;;;;;12.50;7.03;;;;;;;7.00;71.65;101740.44;1824357;77;21237;-79
2021/04/13 07:30:59;;;;;;;14.43;6.72;;;;;;;7.08;71.41;101746.00;1822459;78;21282;-78
2021/04/13 07:33:30;;;;;;;21.23;11.03;;;;;;;7.01;71.25;101746.09;1820331;78;21525;-78
2021/04/13 07:36:27;;;;;;;16.42;9.45;;;;;;;6.84;71.15;101752.64;1790638;79;21526;-78
2021/04/13 07:38:54;;;;;;;17.35;8.98;;;;;;;6.71;70.99;101753.66;1799636;79;21146;-77
2021/04/13 07:41:46;;;;;;;19.52;9.03;;;;;;;6.63;70.87;101752.03;1796591;78;21200;-77
2021/04/13 07:44:26;;;;;;;23.07;11.35;;;;;;;6.58;70.78;101752.36;1778370;80;21218;-77
2021/04/13 07:47:37;;;;;;;25.55;11.95;;;;;;;6.42;70.63;101753.96;1797922;77;21983;-77
2021/04/13 07:50:05;;;;;;;22.55;11.03;;;;;;;6.31;70.49;101748.58;1826487;78;21091;-77
2021/04/13 07:52:45;;;;;;;21.33;9.55;;;;;;;6.21;70.34;101753.31;1798878;78;21678;-77
2021/04/13 07:55:26;;;;;;;16.10;7.87;;;;;;;6.45;70.30;101753.73;1791808;80;21254;-77
2021/04/13 07:58:01;;;;;;;12.88;6.37;;;;;;;6.78;70.15;101752.25;1782014;80;21131;-78
2021/04/13 08:00:33;;;;;;;19.17;9.20;;;;;;;6.98;70.00;101748.97;1791492;80;21510;-78
2021/04/13 08:03:31;;;;;;;14.13;7.00;;;;;;;7.08;69.80;101755.28;1794781;78;21215;-78
2021/04/13 08:06:01;;;;;;;13.08;5.80;;;;;;;7.27;69.65;101752.95;1824269;78;21151;-78
2021/04/13 08:08:36;;;;;;;15.93;7.90;;;;;;;7.33;69.35;101745.85;1824432;78;21196;-78
2021/04/13 08:11:19;;;;;;;18.32;7.70;;;;;;;7.41;69.14;101749.25;1824181;78;21908;-78
2021/04/13 08:13:48;;;;;;;12.50;4.72;;;;;;;7.54;68.98;101747.35;1795006;78;21158;-78
2021/04/13 08:16:31;;;;;;;8.50;5.20;;;;;;;7.64;68.68;101747.00;1775508;78;21636;-78
2021/04/13 08:19:26;;;;;;;20.95;8.68;;;;;;;7.66;68.45;101741.59;1755962;80;21672;-78
2021/04/13 08:22:18;;;;;;;13.28;6.30;;;;;;;7.77;68.20;101744.27;1782444;80;21198;-79
2021/04/13 08:24:57;;;;;;;11.43;7.00;;;;;;;7.96;67.92;101741.85;1780656;80;21188;-79
2021/04/13 08:27:49;;;;;;;10.35;6.00;;;;;;;8.17;67.69;101745.48;1787272;80;21100;-79
2021/04/13 08:32:49;;;;;;;10.90;5.15;;;;;;;8.22;67.39;101740.66;1787745;80;21124;-79
2021/04/13 08:33:37;;;;;;;22.05;8.23;;;;;;;8.16;67.08;101746.47;1774028;80;21195;-78
2021/04/13 08:36:15;;;;;;;6.65;3.80;;;;;;;8.12;66.77;101744.16;1795700;79;21580;-77
2021/04/13 08:38:55;;;;;;;13.20;4.08;;;;;;;8.19;66.53;101746.22;1794537;79;21190;-76
2021/04/13 08:41:32;;;;;;;12.10;4.87;;;;;;;8.31;66.29;101746.59;1773473;80;21208;-76
2021/04/13 08:44:40;;;;;;;7.85;2.70;;;;;;;8.37;65.99;101746.09;1773122;80;21129;-76
2021/04/13 08:47:23;;;;;;;5.15;2.72;;;;;;;8.26;65.63;101747.42;1773488;80;21128;-78
2021/04/13 08:49:54;;;;;;;15.25;4.03;;;;;;;8.16;65.29;101745.61;1766892;80;21147;-78
2021/04/13 08:52:45;;;;;;;14.00;7.15;;;;;;;7.99;64.94;101750.91;1773313;80;21200;-78
2021/04/13 08:55:19;;;;;;;14.58;6.58;;;;;;;7.90;64.66;101743.67;1773532;80;21224;-76
2021/04/13 08:58:05;;;;;;;7.12;4.22;;;;;;;7.93;64.31;101738.11;1773498;80;21168;-76
2021/04/13 09:00:36;;;;;;;6.53;4.20;;;;;;;8.01;64.00;101731.73;1773514;80;21621;-76
2021/04/13 09:03:06;;;;;;;8.03;3.87;;;;;;;7.96;63.40;101734.73;1773626;80;21190;-76
2021/04/13 09:05:40;;;;;;;9.13;4.00;;;;;;;7.88;63.00;101729.67;1773344;80;21581;-76
2021/04/13 09:08:29;;;;;;;10.70;4.08;;;;;;;7.82;62.75;101738.95;1773339;80;21141;-76
2021/04/13 09:11:29;;;;;;;12.13;5.65;;;;;;;7.80;62.58;101738.71;1773751;80;21411;-77
2021/04/13 09:14:09;;;;;;;11.73;4.50;;;;;;;7.90;62.44;101735.70;1773732;80;21123;-78
2021/04/13 09:16:40;;;;;;;6.03;3.20;;;;;;;7.88;62.17;101736.31;1773473;80;21191;-77
2021/04/13 09:19:11;;;;;;;15.40;6.03;;;;;;;7.86;61.98;101730.26;1773448;80;21148;-77
2021/04/13 09:21:47;;;;;;;14.05;7.33;;;;;;;7.79;61.84;101731.70;1771871;80;21168;-77
2021/04/13 09:24:41;;;;;;;8.10;4.25;;;;;;;7.95;61.87;101733.03;1796700;79;21598;-78
2021/04/13 09:29:54;;;;;;;9.73;4.15;;;;;;;8.15;61.60;101720.85;1858471;77;22427;-77
2021/04/13 09:32:30;;;;;;;9.18;3.95;;;;;;;8.28;61.63;101721.59;1827994;78;21055;-77
2021/04/13 09:35:34;;;;;;;12.55;5.30;;;;;;;8.50;61.60;101718.91;1827806;78;21178;-77
2021/04/13 09:38:30;;;;;;;12.78;5.62;;;;;;;8.64;61.40;101715.59;1827837;78;21190;-77
2021/04/13 09:41:39;;;;;;;8.45;4.12;;;;;;;8.64;61.13;101712.94;1827312;78;21208;-77
2021/04/13 09:44:46;;;;;;;11.43;4.47;;;;;;;8.61;60.85;101709.20;1828069;78;21132;-77
2021/04/13 09:47:45;;;;;;;7.78;2.40;;;;;;;8.53;60.59;101713.33;1827655;78;21119;-77
2021/04/13 09:50:23;;;;;;;3.85;2.27;;;;;;;8.50;60.40;101712.25;1827820;78;22125;-77
2021/04/13 09:53:00;;;;;;;14.63;3.92;;;;;;;8.45;60.33;101706.93;1797891;78;21091;-77
2021/04/13 09:55:51;;;;;;;24.00;7.85;;;;;;;8.45;60.26;101701.61;1827244;78;21173;-77
2021/04/13 09:58:26;;;;;;;6.58;3.37;;;;;;;8.65;60.20;101702.67;1827856;78;21099;-77
2021/04/13 10:01:18;;;;;;;6.75;2.95;;;;;;;9.05;60.09;101698.38;1821795;78;21163;-77
2021/04/13 10:04:27;;;;;;;11.50;5.08;;;;;;;9.05;59.78;101698.38;1800635;77;21226;-76
2021/04/13 10:07:17;;;;;;;4.35;2.05;;;;;;;8.76;59.64;101705.30;1795583;78;21583;-77
2021/04/13 10:09:44;;;;;;;5.22;2.08;;;;;;;8.71;59.41;101700.83;1795030;80;21103;-77
2021/04/13 10:12:56;;;;;;;6.60;2.92;;;;;;;8.74;59.20;101701.91;1813712;78;21664;-77
2021/04/13 10:16:03;;;;;;;3.45;2.10;;;;;;;8.80;59.03;101694.73;1814482;78;21564;-77
2021/04/13 10:19:02;;;;;;;3.98;2.00;;;;;;;8.83;58.76;101687.86;1818795;78;22057;-76
2021/04/13 10:21:56;;;;;;;21.40;8.03;;;;;;;8.56;58.30;101694.09;1795581;78;21567;-76
2021/04/13 10:24:57;;;;;;;35.80;14.60;;;;;;;8.36;58.16;101705.88;1787495;80;21103;-77
2021/04/13 10:27:46;;;;;;;16.62;7.55;;;;;;;8.16;57.98;101704.43;1767741;80;21127;-77
2021/04/13 10:30:45;;;;;;;25.30;7.37;;;;;;;8.30;58.00;101690.41;1786972;79;21166;-77
2021/04/13 10:33:25;;;;;;;14.65;5.60;;;;;;;8.73;57.89;101693.55;1788921;80;22148;-77
2021/04/13 10:36:31;;;;;;;10.40;4.30;;;;;;;8.89;57.55;101691.34;1793221;80;21148;-77
2021/04/13 10:39:33;;;;;;;22.42;8.60;;;;;;;8.81;57.33;101695.11;1781742;80;21111;-77
2021/04/13 10:42:42;;;;;;;9.65;3.80;;;;;;;8.99;57.31;101693.58;1794629;80;21158;-77
2021/04/13 10:45:26;;;;;;;7.20;3.45;;;;;;;9.29;57.21;101692.33;1776198;80;21127;-77
2021/04/13 10:48:09;;;;;;;8.25;3.45;;;;;;;9.16;56.95;101687.69;1791343;80;21200;-77
2021/04/13 10:51:02;;;;;;;4.47;1.42;;;;;;;9.19;56.90;101687.42;1762668;80;21446;-77
2021/04/13 10:53:48;;;;;;;7.83;3.20;;;;;;;9.19;56.66;101682.10;1798397;78;21478;-77
2021/04/13 10:57:07;;;;;;;27.55;8.53;;;;;;;9.22;56.50;101671.70;1794395;80;21690;-77
2021/04/13 11:00:06;;;;;;;8.08;2.17;;;;;;;9.10;56.20;101670.92;1780223;78;21201;-77
2021/04/13 11:03:19;;;;;;;6.20;2.70;;;;;;;8.81;55.97;101668.51;1768424;78;21187;-77
2021/04/13 11:06:17;;;;;;;15.90;5.72;;;;;;;8.58;55.88;101670.91;1759404;80;21608;-77
2021/04/13 11:09:27;;;;;;;16.15;7.58;;;;;;;8.76;55.91;101666.73;1780303;78;21162;-77
2021/04/13 11:12:32;;;;;;;13.10;5.58;;;;;;;9.14;55.88;101668.36;1758320;80;21561;-77
2021/04/13 11:15:35;;;;;;;14.40;5.20;;;;;;;9.09;55.60;101658.58;1721902;81;21190;-77
2021/04/13 11:18:27;;;;;;;7.67;3.10;;;;;;;9.07;55.43;101660.53;1679339;83;21862;-77
2021/04/13 11:21:14;;;;;;;10.65;2.40;;;;;;;9.06;55.24;101665.49;1711589;83;21267;-77
2021/04/13 11:24:19;;;;;;;2.98;1.57;;;;;;;9.15;55.13;101654.05;1727509;82;21163;-77
2021/04/13 11:27:18;;;;;;;3.10;1.17;;;;;;;9.39;54.95;101654.63;1741075;81;21660;-77
2021/04/13 11:30:15;;;;;;;6.70;2.60;;;;;;;9.31;54.44;101651.80;1740951;81;21211;-76
2021/04/13 11:33:12;;;;;;;3.05;1.17;;;;;;;9.11;54.00;101642.02;1724122;82;21328;-77
2021/04/13 11:35:46;;;;;;;3.15;1.20;;;;;;;9.15;53.82;101643.41;1740638;82;21215;-76
2021/04/13 11:38:38;;;;;;;5.83;1.30;;;;;;;9.19;53.57;101646.66;1739790;82;21623;-76
2021/04/13 11:41:25;;;;;;;3.08;1.00;;;;;;;9.18;53.39;101643.17;1740794;82;21103;-76
2021/04/13 11:44:11;;;;;;;4.00;1.77;;;;;;;9.10;53.20;101650.95;1740772;82;21160;-76
2021/04/13 11:46:51;;;;;;;6.37;2.92;;;;;;;9.05;53.04;101649.16;1738177;82;21261;-76
2021/04/13 11:49:45;;;;;;;10.65;3.98;;;;;;;9.14;52.98;101641.75;1737794;81;21177;-76
2021/04/13 11:52:50;;;;;;;2.60;1.20;;;;;;;9.30;52.84;101643.92;1793687;78;27862;-77
2021/04/13 11:55:34;;;;;;;5.00;1.50;;;;;;;9.39;52.49;101646.64;1793859;79;21077;-76
2021/04/13 11:58:15;;;;;;;6.10;2.33;;;;;;;9.31;52.11;101641.15;1766325;80;21242;-77
2021/04/13 12:00:45;;;;;;;24.00;11.97;;;;;;;9.47;52.03;101638.84;1766926;80;21148;-76
2021/04/13 12:03:23;;;;;;;43.55;28.52;;;;;;;9.46;51.89;101628.34;1765677;80;21160;-77
2021/04/13 12:05:57;;;;;;;39.38;23.47;;;;;;;9.41;51.76;101638.05;1768207;80;21104;-77
2021/04/13 12:08:38;;;;;;;18.70;9.70;;;;;;;9.26;51.57;101636.69;1779154;80;21183;-77
2021/04/13 12:11:16;;;;;;;18.42;11.55;;;;;;;9.16;51.34;101639.78;1784992;80;21185;-77
2021/04/13 12:13:47;;;;;;;6.87;3.05;;;;;;;9.17;51.23;101626.84;1742716;81;21037;-76
2021/04/13 12:16:22;;;;;;;7.30;3.15;;;;;;;9.16;51.05;101625.15;1773644;80;21191;-77
2021/04/13 12:19:11;;;;;;;4.90;1.70;;;;;;;9.19;50.73;101631.53;1763645;80;21131;-71
2021/04/13 12:21:41;;;;;;;4.45;1.90;;;;;;;9.22;50.69;101623.28;1765638;80;21149;-75
2021/04/13 12:24:44;;;;;;;4.50;1.82;;;;;;;9.36;50.53;101614.95;1773406;80;21183;-75
2021/04/13 12:27:34;;;;;;;1.90;1.17;;;;;;;9.47;50.44;101613.55;1737831;81;21680;-75
2021/04/13 12:30:29;;;;;;;6.35;2.25;;;;;;;9.48;50.38;101619.23;1770041;80;21289;-75
2021/04/13 12:32:55;;;;;;;9.10;2.90;;;;;;;9.58;50.33;101620.61;1750567;80;22114;-75